sensor_id;sensor_type;location;lat;lon;timestamp;P1;durP1;ratioP1;P2;durP2;ratioP2
6898;SDS011;3488;42.616;23.350;2024-03-25T00:00:12;0.30;;;0.30;;
6898;SDS011;3488;42.616;23.350;2024-03-25T00:02:40;0.52;;;0.20;;
6898;SDS011;3488;42.616;23.350;2024-03-25T00:05:07;0.55;;;0.55;;
6898;SDS011;3488;42.616;23.350;2024-03-25T00:07:36;1.00;;;0.30;;
6898;SDS011;3488;42.616;23.350;2024-03-25T00:10:03;0.30;;;0.20;;
6898;SDS011;3488;42.616;23.350;2024-03-25T00:12:31;0.20;;;0.15;;
6898;SDS011;3488;42.616;23.350;2024-03-25T00:14:56;0.35;;;0.20;;
6898;SDS011;3488;42.616;23.350;2024-03-25T00:17:22;0.40;;;0.30;;
6898;SDS011;3488;42.616;23.350;2024-03-25T00:19:48;0.30;;;0.22;;
6898;SDS011;3488;42.616;23.350;2024-03-25T00:22:17;0.55;;;0.20;;
6898;SDS011;3488;42.616;23.350;2024-03-25T00:24:44;0.85;;;0.45;;
6898;SDS011;3488;42.616;23.350;2024-03-25T00:27:11;0.50;;;0.30;;
6898;SDS011;3488;42.616;23.350;2024-03-25T00:29:37;1.10;;;0.50;;
6898;SDS011;3488;42.616;23.350;2024-03-25T00:32:03;1.33;;;0.32;;
6898;SDS011;3488;42.616;23.350;2024-03-25T00:34:29;0.40;;;0.20;;
6898;SDS011;3488;42.616;23.350;2024-03-25T00:36:54;0.47;;;0.40;;
6898;SDS011;3488;42.616;23.350;2024-03-25T00:39:20;0.20;;;0.20;;
6898;SDS011;3488;42.616;23.350;2024-03-25T00:41:50;0.20;;;0.20;;
6898;SDS011;3488;42.616;23.350;2024-03-25T00:44:16;0.75;;;0.20;;
6898;SDS011;3488;42.616;23.350;2024-03-25T00:46:42;0.40;;;0.30;;
6898;SDS011;3488;42.616;23.350;2024-03-25T00:49:08;0.30;;;0.20;;
6898;SDS011;3488;42.616;23.350;2024-03-25T00:51:34;2.53;;;0.28;;
6898;SDS011;3488;42.616;23.350;2024-03-25T00:54:01;0.68;;;0.60;;
6898;SDS011;3488;42.616;23.350;2024-03-25T00:56:26;0.30;;;0.22;;
6898;SDS011;3488;42.616;23.350;2024-03-25T00:58:52;1.30;;;0.25;;
6898;SDS011;3488;42.616;23.350;2024-03-25T01:01:18;1.05;;;0.30;;
6898;SDS011;3488;42.616;23.350;2024-03-25T01:03:43;0.45;;;0.20;;
6898;SDS011;3488;42.616;23.350;2024-03-25T01:06:09;0.38;;;0.20;;
6898;SDS011;3488;42.616;23.350;2024-03-25T01:08:35;0.60;;;0.30;;
6898;SDS011;3488;42.616;23.350;2024-03-25T01:11:00;0.30;;;0.20;;
6898;SDS011;3488;42.616;23.350;2024-03-25T01:13:26;0.30;;;0.20;;
6898;SDS011;3488;42.616;23.350;2024-03-25T01:15:51;0.30;;;0.20;;
6898;SDS011;3488;42.616;23.350;2024-03-25T01:18:17;0.43;;;0.20;;
6898;SDS011;3488;42.616;23.350;2024-03-25T01:20:43;1.45;;;0.28;;
6898;SDS011;3488;42.616;23.350;2024-03-25T01:23:09;0.70;;;0.40;;
6898;SDS011;3488;42.616;23.350;2024-03-25T01:25:35;0.50;;;0.50;;
6898;SDS011;3488;42.616;23.350;2024-03-25T01:28:00;0.88;;;0.32;;
6898;SDS011;3488;42.616;23.350;2024-03-25T01:30:27;0.30;;;0.20;;
6898;SDS011;3488;42.616;23.350;2024-03-25T01:32:54;0.73;;;0.25;;
6898;SDS011;3488;42.616;23.350;2024-03-25T01:35:19;0.90;;;0.20;;
6898;SDS011;3488;42.616;23.350;2024-03-25T01:37:45;1.42;;;0.40;;
6898;SDS011;3488;42.616;23.350;2024-03-25T01:40:11;1.10;;;0.43;;
6898;SDS011;3488;42.616;23.350;2024-03-25T01:42:37;0.63;;;0.30;;
6898;SDS011;3488;42.616;23.350;2024-03-25T01:45:03;1.00;;;0.30;;
6898;SDS011;3488;42.616;23.350;2024-03-25T01:47:29;1.10;;;0.40;;
6898;SDS011;3488;42.616;23.350;2024-03-25T01:49:57;0.70;;;0.50;;
6898;SDS011;3488;42.616;23.350;2024-03-25T01:52:23;0.55;;;0.30;;
6898;SDS011;3488;42.616;23.350;2024-03-25T01:54:51;0.63;;;0.50;;
6898;SDS011;3488;42.616;23.350;2024-03-25T01:57:17;0.70;;;0.40;;
6898;SDS011;3488;42.616;23.350;2024-03-25T01:59:44;0.70;;;0.40;;
6898;SDS011;3488;42.616;23.350;2024-03-25T02:02:10;0.73;;;0.30;;
6898;SDS011;3488;42.616;23.350;2024-03-25T02:04:37;0.60;;;0.30;;
6898;SDS011;3488;42.616;23.350;2024-03-25T02:07:04;0.50;;;0.20;;
6898;SDS011;3488;42.616;23.350;2024-03-25T02:09:32;0.52;;;0.30;;
6898;SDS011;3488;42.616;23.350;2024-03-25T02:11:58;0.63;;;0.30;;
6898;SDS011;3488;42.616;23.350;2024-03-25T02:14:23;1.65;;;0.63;;
6898;SDS011;3488;42.616;23.350;2024-03-25T02:16:49;0.85;;;0.30;;
6898;SDS011;3488;42.616;23.350;2024-03-25T02:19:15;0.90;;;0.52;;
6898;SDS011;3488;42.616;23.350;2024-03-25T02:21:41;0.93;;;0.80;;
6898;SDS011;3488;42.616;23.350;2024-03-25T02:24:07;0.98;;;0.57;;
6898;SDS011;3488;42.616;23.350;2024-03-25T02:26:35;1.05;;;0.45;;
6898;SDS011;3488;42.616;23.350;2024-03-25T02:29:01;0.80;;;0.40;;
6898;SDS011;3488;42.616;23.350;2024-03-25T02:31:27;0.63;;;0.28;;
6898;SDS011;3488;42.616;23.350;2024-03-25T02:33:52;0.88;;;0.60;;
6898;SDS011;3488;42.616;23.350;2024-03-25T02:36:18;0.70;;;0.40;;
6898;SDS011;3488;42.616;23.350;2024-03-25T02:38:44;0.25;;;0.20;;
6898;SDS011;3488;42.616;23.350;2024-03-25T02:41:09;1.15;;;1.05;;
6898;SDS011;3488;42.616;23.350;2024-03-25T02:43:35;0.88;;;0.43;;
6898;SDS011;3488;42.616;23.350;2024-03-25T02:46:01;0.77;;;0.47;;
6898;SDS011;3488;42.616;23.350;2024-03-25T02:48:26;0.93;;;0.40;;
6898;SDS011;3488;42.616;23.350;2024-03-25T02:50:52;1.63;;;0.70;;
6898;SDS011;3488;42.616;23.350;2024-03-25T02:53:17;0.85;;;0.30;;
6898;SDS011;3488;42.616;23.350;2024-03-25T02:55:43;0.93;;;0.52;;
6898;SDS011;3488;42.616;23.350;2024-03-25T02:58:09;0.77;;;0.30;;
6898;SDS011;3488;42.616;23.350;2024-03-25T03:00:34;0.47;;;0.30;;
6898;SDS011;3488;42.616;23.350;2024-03-25T03:03:00;0.70;;;0.30;;
6898;SDS011;3488;42.616;23.350;2024-03-25T03:05:26;0.70;;;0.30;;
6898;SDS011;3488;42.616;23.350;2024-03-25T03:07:51;0.70;;;0.30;;
6898;SDS011;3488;42.616;23.350;2024-03-25T03:10:16;0.80;;;0.30;;
6898;SDS011;3488;42.616;23.350;2024-03-25T03:12:42;0.77;;;0.43;;
6898;SDS011;3488;42.616;23.350;2024-03-25T03:15:08;1.38;;;0.50;;
6898;SDS011;3488;42.616;23.350;2024-03-25T03:17:34;1.13;;;0.40;;
6898;SDS011;3488;42.616;23.350;2024-03-25T03:20:00;0.82;;;0.43;;
6898;SDS011;3488;42.616;23.350;2024-03-25T03:22:25;1.00;;;0.50;;
6898;SDS011;3488;42.616;23.350;2024-03-25T03:24:51;0.57;;;0.30;;
6898;SDS011;3488;42.616;23.350;2024-03-25T03:27:17;1.48;;;0.60;;
6898;SDS011;3488;42.616;23.350;2024-03-25T03:29:43;5.28;;;1.50;;
6898;SDS011;3488;42.616;23.350;2024-03-25T03:32:08;5.15;;;2.03;;
6898;SDS011;3488;42.616;23.350;2024-03-25T03:34:33;4.53;;;1.80;;
6898;SDS011;3488;42.616;23.350;2024-03-25T03:36:59;4.75;;;1.75;;
6898;SDS011;3488;42.616;23.350;2024-03-25T03:39:24;4.13;;;1.65;;
6898;SDS011;3488;42.616;23.350;2024-03-25T03:41:50;2.63;;;1.20;;
6898;SDS011;3488;42.616;23.350;2024-03-25T03:44:16;3.35;;;1.85;;
6898;SDS011;3488;42.616;23.350;2024-03-25T03:46:41;3.45;;;1.70;;
6898;SDS011;3488;42.616;23.350;2024-03-25T03:49:07;3.13;;;1.13;;
6898;SDS011;3488;42.616;23.350;2024-03-25T03:51:32;4.50;;;1.80;;
6898;SDS011;3488;42.616;23.350;2024-03-25T03:53:58;4.10;;;1.90;;
6898;SDS011;3488;42.616;23.350;2024-03-25T03:56:23;3.72;;;1.75;;
6898;SDS011;3488;42.616;23.350;2024-03-25T03:58:49;4.25;;;1.80;;
6898;SDS011;3488;42.616;23.350;2024-03-25T04:01:17;2.65;;;1.33;;
6898;SDS011;3488;42.616;23.350;2024-03-25T04:03:44;4.72;;;1.58;;
6898;SDS011;3488;42.616;23.350;2024-03-25T04:06:10;3.75;;;1.73;;
6898;SDS011;3488;42.616;23.350;2024-03-25T04:08:37;5.78;;;2.65;;
6898;SDS011;3488;42.616;23.350;2024-03-25T04:11:06;4.75;;;2.08;;
6898;SDS011;3488;42.616;23.350;2024-03-25T04:13:32;5.25;;;2.00;;
6898;SDS011;3488;42.616;23.350;2024-03-25T04:16:02;5.68;;;3.33;;
6898;SDS011;3488;42.616;23.350;2024-03-25T04:18:29;7.28;;;2.85;;
6898;SDS011;3488;42.616;23.350;2024-03-25T04:20:55;5.78;;;2.80;;
6898;SDS011;3488;42.616;23.350;2024-03-25T04:23:20;5.35;;;2.80;;
6898;SDS011;3488;42.616;23.350;2024-03-25T04:25:46;7.15;;;3.33;;
6898;SDS011;3488;42.616;23.350;2024-03-25T04:28:13;5.32;;;2.50;;
6898;SDS011;3488;42.616;23.350;2024-03-25T04:30:38;6.53;;;3.17;;
6898;SDS011;3488;42.616;23.350;2024-03-25T04:33:04;5.80;;;3.00;;
6898;SDS011;3488;42.616;23.350;2024-03-25T04:35:30;7.50;;;3.38;;
6898;SDS011;3488;42.616;23.350;2024-03-25T04:37:55;7.28;;;4.07;;
6898;SDS011;3488;42.616;23.350;2024-03-25T04:40:21;7.57;;;3.40;;
6898;SDS011;3488;42.616;23.350;2024-03-25T04:42:47;6.80;;;3.60;;
6898;SDS011;3488;42.616;23.350;2024-03-25T04:45:13;5.82;;;3.05;;
6898;SDS011;3488;42.616;23.350;2024-03-25T04:47:39;9.32;;;4.40;;
6898;SDS011;3488;42.616;23.350;2024-03-25T04:50:05;8.32;;;3.90;;
6898;SDS011;3488;42.616;23.350;2024-03-25T04:52:32;10.05;;;3.72;;
6898;SDS011;3488;42.616;23.350;2024-03-25T04:54:57;7.28;;;3.20;;
6898;SDS011;3488;42.616;23.350;2024-03-25T04:57:23;6.47;;;3.10;;
6898;SDS011;3488;42.616;23.350;2024-03-25T04:59:49;5.60;;;2.70;;
6898;SDS011;3488;42.616;23.350;2024-03-25T05:02:18;8.20;;;3.53;;
6898;SDS011;3488;42.616;23.350;2024-03-25T05:04:44;7.45;;;3.63;;
6898;SDS011;3488;42.616;23.350;2024-03-25T05:07:10;5.43;;;2.85;;
6898;SDS011;3488;42.616;23.350;2024-03-25T05:09:35;7.32;;;3.28;;
6898;SDS011;3488;42.616;23.350;2024-03-25T05:12:01;7.00;;;3.53;;
6898;SDS011;3488;42.616;23.350;2024-03-25T05:14:26;10.30;;;4.18;;
6898;SDS011;3488;42.616;23.350;2024-03-25T05:16:52;9.25;;;4.57;;
6898;SDS011;3488;42.616;23.350;2024-03-25T05:19:18;7.70;;;3.83;;
6898;SDS011;3488;42.616;23.350;2024-03-25T05:21:44;7.10;;;3.75;;
6898;SDS011;3488;42.616;23.350;2024-03-25T05:24:10;9.40;;;3.63;;
6898;SDS011;3488;42.616;23.350;2024-03-25T05:26:36;9.88;;;4.32;;
6898;SDS011;3488;42.616;23.350;2024-03-25T05:29:02;8.57;;;3.67;;
6898;SDS011;3488;42.616;23.350;2024-03-25T05:31:28;9.65;;;4.40;;
6898;SDS011;3488;42.616;23.350;2024-03-25T05:33:53;10.40;;;4.43;;
6898;SDS011;3488;42.616;23.350;2024-03-25T05:36:19;8.35;;;3.80;;
6898;SDS011;3488;42.616;23.350;2024-03-25T05:38:45;11.73;;;4.53;;
6898;SDS011;3488;42.616;23.350;2024-03-25T05:41:11;8.93;;;4.28;;
6898;SDS011;3488;42.616;23.350;2024-03-25T05:43:36;7.30;;;4.00;;
6898;SDS011;3488;42.616;23.350;2024-03-25T05:46:02;8.10;;;3.70;;
6898;SDS011;3488;42.616;23.350;2024-03-25T05:48:28;9.20;;;3.50;;
6898;SDS011;3488;42.616;23.350;2024-03-25T05:53:23;8.07;;;3.55;;
6898;SDS011;3488;42.616;23.350;2024-03-25T05:55:48;9.23;;;3.42;;
6898;SDS011;3488;42.616;23.350;2024-03-25T05:58:14;9.30;;;4.25;;
6898;SDS011;3488;42.616;23.350;2024-03-25T06:00:40;10.70;;;3.72;;
6898;SDS011;3488;42.616;23.350;2024-03-25T06:03:06;7.80;;;3.33;;
6898;SDS011;3488;42.616;23.350;2024-03-25T06:05:32;9.77;;;4.28;;
6898;SDS011;3488;42.616;23.350;2024-03-25T06:07:57;7.93;;;4.13;;
6898;SDS011;3488;42.616;23.350;2024-03-25T06:10:23;7.80;;;3.88;;
6898;SDS011;3488;42.616;23.350;2024-03-25T06:12:48;8.90;;;4.65;;
6898;SDS011;3488;42.616;23.350;2024-03-25T06:15:14;7.57;;;3.22;;
6898;SDS011;3488;42.616;23.350;2024-03-25T06:17:39;6.35;;;3.53;;
6898;SDS011;3488;42.616;23.350;2024-03-25T06:20:05;8.73;;;3.65;;
6898;SDS011;3488;42.616;23.350;2024-03-25T06:22:31;9.55;;;3.90;;
6898;SDS011;3488;42.616;23.350;2024-03-25T06:24:56;7.15;;;3.65;;
6898;SDS011;3488;42.616;23.350;2024-03-25T06:27:22;10.48;;;4.38;;
6898;SDS011;3488;42.616;23.350;2024-03-25T06:29:48;9.68;;;3.33;;
6898;SDS011;3488;42.616;23.350;2024-03-25T06:32:14;7.72;;;2.65;;
6898;SDS011;3488;42.616;23.350;2024-03-25T06:34:58;8.15;;;3.63;;
6898;SDS011;3488;42.616;23.350;2024-03-25T06:37:26;6.43;;;3.45;;
6898;SDS011;3488;42.616;23.350;2024-03-25T06:39:52;7.60;;;3.15;;
6898;SDS011;3488;42.616;23.350;2024-03-25T06:42:18;6.72;;;3.42;;
6898;SDS011;3488;42.616;23.350;2024-03-25T06:44:44;8.25;;;3.70;;
6898;SDS011;3488;42.616;23.350;2024-03-25T06:47:14;10.18;;;3.92;;
6898;SDS011;3488;42.616;23.350;2024-03-25T06:49:40;7.70;;;3.22;;
6898;SDS011;3488;42.616;23.350;2024-03-25T06:52:05;7.15;;;2.97;;
6898;SDS011;3488;42.616;23.350;2024-03-25T06:54:31;6.93;;;3.35;;
6898;SDS011;3488;42.616;23.350;2024-03-25T06:56:56;6.28;;;3.15;;
6898;SDS011;3488;42.616;23.350;2024-03-25T06:59:22;6.05;;;2.92;;
6898;SDS011;3488;42.616;23.350;2024-03-25T07:01:48;10.00;;;3.78;;
6898;SDS011;3488;42.616;23.350;2024-03-25T07:04:14;8.35;;;3.92;;
6898;SDS011;3488;42.616;23.350;2024-03-25T07:06:42;7.35;;;3.53;;
6898;SDS011;3488;42.616;23.350;2024-03-25T07:09:08;8.48;;;3.95;;
6898;SDS011;3488;42.616;23.350;2024-03-25T07:11:36;9.70;;;4.53;;
6898;SDS011;3488;42.616;23.350;2024-03-25T07:14:01;8.00;;;4.45;;
6898;SDS011;3488;42.616;23.350;2024-03-25T07:16:27;8.73;;;4.30;;
6898;SDS011;3488;42.616;23.350;2024-03-25T07:18:56;6.88;;;3.08;;
6898;SDS011;3488;42.616;23.350;2024-03-25T07:21:22;8.73;;;3.53;;
6898;SDS011;3488;42.616;23.350;2024-03-25T07:23:47;9.07;;;4.45;;
6898;SDS011;3488;42.616;23.350;2024-03-25T07:26:13;5.65;;;2.53;;
6898;SDS011;3488;42.616;23.350;2024-03-25T07:28:38;8.07;;;3.40;;
6898;SDS011;3488;42.616;23.350;2024-03-25T07:31:04;6.72;;;3.30;;
6898;SDS011;3488;42.616;23.350;2024-03-25T07:33:29;6.10;;;2.97;;
6898;SDS011;3488;42.616;23.350;2024-03-25T07:35:55;5.50;;;2.60;;
6898;SDS011;3488;42.616;23.350;2024-03-25T07:38:20;8.00;;;3.28;;
6898;SDS011;3488;42.616;23.350;2024-03-25T07:40:46;8.73;;;3.65;;
6898;SDS011;3488;42.616;23.350;2024-03-25T07:43:12;5.88;;;3.10;;
6898;SDS011;3488;42.616;23.350;2024-03-25T07:45:38;6.03;;;3.17;;
6898;SDS011;3488;42.616;23.350;2024-03-25T07:48:04;7.07;;;3.45;;
6898;SDS011;3488;42.616;23.350;2024-03-25T07:50:30;7.35;;;4.25;;
6898;SDS011;3488;42.616;23.350;2024-03-25T07:52:56;7.35;;;3.95;;
6898;SDS011;3488;42.616;23.350;2024-03-25T07:55:21;6.25;;;3.05;;
6898;SDS011;3488;42.616;23.350;2024-03-25T07:57:47;7.22;;;3.25;;
6898;SDS011;3488;42.616;23.350;2024-03-25T08:00:12;7.15;;;3.42;;
6898;SDS011;3488;42.616;23.350;2024-03-25T08:02:38;7.15;;;3.28;;
6898;SDS011;3488;42.616;23.350;2024-03-25T08:05:04;7.03;;;3.15;;
6898;SDS011;3488;42.616;23.350;2024-03-25T08:07:30;5.00;;;2.38;;
6898;SDS011;3488;42.616;23.350;2024-03-25T08:09:56;5.65;;;2.72;;
6898;SDS011;3488;42.616;23.350;2024-03-25T08:12:21;5.70;;;2.45;;
6898;SDS011;3488;42.616;23.350;2024-03-25T08:14:47;4.55;;;2.03;;
6898;SDS011;3488;42.616;23.350;2024-03-25T08:17:12;6.13;;;3.25;;
6898;SDS011;3488;42.616;23.350;2024-03-25T08:19:40;5.05;;;2.63;;
6898;SDS011;3488;42.616;23.350;2024-03-25T08:22:05;7.85;;;2.85;;
6898;SDS011;3488;42.616;23.350;2024-03-25T08:24:31;4.72;;;2.58;;
6898;SDS011;3488;42.616;23.350;2024-03-25T08:26:57;6.32;;;2.83;;
6898;SDS011;3488;42.616;23.350;2024-03-25T08:29:22;6.40;;;3.28;;
6898;SDS011;3488;42.616;23.350;2024-03-25T08:31:48;5.28;;;2.90;;
6898;SDS011;3488;42.616;23.350;2024-03-25T08:34:13;7.78;;;3.13;;
6898;SDS011;3488;42.616;23.350;2024-03-25T08:36:39;6.60;;;3.30;;
6898;SDS011;3488;42.616;23.350;2024-03-25T08:39:04;6.38;;;3.28;;
6898;SDS011;3488;42.616;23.350;2024-03-25T08:41:30;5.93;;;2.97;;
6898;SDS011;3488;42.616;23.350;2024-03-25T08:43:56;6.70;;;2.90;;
6898;SDS011;3488;42.616;23.350;2024-03-25T08:46:21;7.55;;;4.05;;
6898;SDS011;3488;42.616;23.350;2024-03-25T08:48:47;5.63;;;2.70;;
6898;SDS011;3488;42.616;23.350;2024-03-25T08:51:12;7.68;;;2.50;;
6898;SDS011;3488;42.616;23.350;2024-03-25T08:53:38;4.65;;;2.33;;
6898;SDS011;3488;42.616;23.350;2024-03-25T08:56:03;5.72;;;2.83;;
6898;SDS011;3488;42.616;23.350;2024-03-25T08:58:29;6.20;;;3.40;;
6898;SDS011;3488;42.616;23.350;2024-03-25T09:00:55;5.25;;;2.85;;
6898;SDS011;3488;42.616;23.350;2024-03-25T09:03:21;5.22;;;2.88;;
6898;SDS011;3488;42.616;23.350;2024-03-25T09:05:46;4.85;;;2.50;;
6898;SDS011;3488;42.616;23.350;2024-03-25T09:08:12;6.85;;;3.08;;
6898;SDS011;3488;42.616;23.350;2024-03-25T09:10:38;6.70;;;3.28;;
6898;SDS011;3488;42.616;23.350;2024-03-25T09:13:22;6.95;;;3.10;;
6898;SDS011;3488;42.616;23.350;2024-03-25T09:15:50;6.72;;;3.42;;
6898;SDS011;3488;42.616;23.350;2024-03-25T09:18:16;8.20;;;3.40;;
6898;SDS011;3488;42.616;23.350;2024-03-25T09:20:42;6.10;;;3.47;;
6898;SDS011;3488;42.616;23.350;2024-03-25T09:23:07;6.30;;;3.00;;
6898;SDS011;3488;42.616;23.350;2024-03-25T09:25:33;10.25;;;3.38;;
6898;SDS011;3488;42.616;23.350;2024-03-25T09:27:58;5.20;;;2.67;;
6898;SDS011;3488;42.616;23.350;2024-03-25T09:30:24;6.80;;;3.08;;
6898;SDS011;3488;42.616;23.350;2024-03-25T09:32:50;5.65;;;3.20;;
6898;SDS011;3488;42.616;23.350;2024-03-25T09:35:15;6.13;;;3.47;;
6898;SDS011;3488;42.616;23.350;2024-03-25T09:37:41;6.50;;;3.42;;
6898;SDS011;3488;42.616;23.350;2024-03-25T09:40:06;7.15;;;3.78;;
6898;SDS011;3488;42.616;23.350;2024-03-25T09:42:48;6.07;;;3.50;;
6898;SDS011;3488;42.616;23.350;2024-03-25T09:45:18;5.78;;;3.00;;
6898;SDS011;3488;42.616;23.350;2024-03-25T09:47:47;5.28;;;2.95;;
6898;SDS011;3488;42.616;23.350;2024-03-25T09:50:13;5.13;;;2.78;;
6898;SDS011;3488;42.616;23.350;2024-03-25T09:52:44;6.97;;;3.38;;
6898;SDS011;3488;42.616;23.350;2024-03-25T09:55:10;6.40;;;3.30;;
6898;SDS011;3488;42.616;23.350;2024-03-25T09:57:36;5.35;;;2.50;;
6898;SDS011;3488;42.616;23.350;2024-03-25T10:00:03;5.30;;;2.80;;
6898;SDS011;3488;42.616;23.350;2024-03-25T10:02:30;5.10;;;3.05;;
6898;SDS011;3488;42.616;23.350;2024-03-25T10:04:57;6.45;;;3.20;;
6898;SDS011;3488;42.616;23.350;2024-03-25T10:07:23;5.55;;;2.78;;
6898;SDS011;3488;42.616;23.350;2024-03-25T10:09:49;6.18;;;3.45;;
6898;SDS011;3488;42.616;23.350;2024-03-25T10:12:15;6.10;;;2.78;;
6898;SDS011;3488;42.616;23.350;2024-03-25T10:14:41;5.80;;;3.22;;
6898;SDS011;3488;42.616;23.350;2024-03-25T10:17:08;6.07;;;2.65;;
6898;SDS011;3488;42.616;23.350;2024-03-25T10:19:34;6.30;;;2.50;;
6898;SDS011;3488;42.616;23.350;2024-03-25T10:22:07;4.78;;;2.67;;
6898;SDS011;3488;42.616;23.350;2024-03-25T10:24:39;4.65;;;2.90;;
6898;SDS011;3488;42.616;23.350;2024-03-25T10:27:09;4.68;;;2.28;;
6898;SDS011;3488;42.616;23.350;2024-03-25T10:29:36;5.55;;;2.92;;
6898;SDS011;3488;42.616;23.350;2024-03-25T10:32:02;5.00;;;2.15;;
6898;SDS011;3488;42.616;23.350;2024-03-25T10:34:29;4.05;;;2.00;;
6898;SDS011;3488;42.616;23.350;2024-03-25T10:36:58;4.53;;;2.67;;
6898;SDS011;3488;42.616;23.350;2024-03-25T10:39:27;5.43;;;3.15;;
6898;SDS011;3488;42.616;23.350;2024-03-25T10:41:57;4.78;;;2.42;;
6898;SDS011;3488;42.616;23.350;2024-03-25T10:44:25;5.10;;;2.83;;
6898;SDS011;3488;42.616;23.350;2024-03-25T10:46:58;5.75;;;2.80;;
6898;SDS011;3488;42.616;23.350;2024-03-25T10:49:40;5.22;;;2.65;;
6898;SDS011;3488;42.616;23.350;2024-03-25T10:52:19;3.72;;;2.15;;
6898;SDS011;3488;42.616;23.350;2024-03-25T10:54:46;4.10;;;2.13;;
6898;SDS011;3488;42.616;23.350;2024-03-25T10:57:12;3.63;;;2.55;;
6898;SDS011;3488;42.616;23.350;2024-03-25T10:59:39;5.15;;;2.25;;
6898;SDS011;3488;42.616;23.350;2024-03-25T11:02:07;4.15;;;1.98;;
6898;SDS011;3488;42.616;23.350;2024-03-25T11:04:33;4.35;;;2.10;;
6898;SDS011;3488;42.616;23.350;2024-03-25T11:07:12;3.95;;;1.90;;
6898;SDS011;3488;42.616;23.350;2024-03-25T11:09:39;4.35;;;2.40;;
6898;SDS011;3488;42.616;23.350;2024-03-25T11:12:05;4.22;;;2.25;;
6898;SDS011;3488;42.616;23.350;2024-03-25T11:14:32;4.68;;;2.10;;
6898;SDS011;3488;42.616;23.350;2024-03-25T11:16:59;5.47;;;2.38;;
6898;SDS011;3488;42.616;23.350;2024-03-25T11:19:30;5.68;;;3.13;;
6898;SDS011;3488;42.616;23.350;2024-03-25T11:22:06;3.85;;;2.30;;
6898;SDS011;3488;42.616;23.350;2024-03-25T11:24:34;3.85;;;2.13;;
6898;SDS011;3488;42.616;23.350;2024-03-25T11:27:06;4.47;;;2.53;;
6898;SDS011;3488;42.616;23.350;2024-03-25T11:29:32;4.18;;;2.42;;
6898;SDS011;3488;42.616;23.350;2024-03-25T11:32:04;3.97;;;2.25;;
6898;SDS011;3488;42.616;23.350;2024-03-25T11:34:31;4.30;;;2.15;;
6898;SDS011;3488;42.616;23.350;2024-03-25T11:36:56;4.50;;;1.88;;
6898;SDS011;3488;42.616;23.350;2024-03-25T11:39:22;4.40;;;2.15;;
6898;SDS011;3488;42.616;23.350;2024-03-25T11:41:48;5.00;;;2.53;;
6898;SDS011;3488;42.616;23.350;2024-03-25T11:44:15;5.18;;;2.00;;
6898;SDS011;3488;42.616;23.350;2024-03-25T11:46:42;3.60;;;1.95;;
6898;SDS011;3488;42.616;23.350;2024-03-25T11:49:12;3.42;;;1.55;;
6898;SDS011;3488;42.616;23.350;2024-03-25T11:51:40;3.15;;;1.30;;
6898;SDS011;3488;42.616;23.350;2024-03-25T11:54:06;2.75;;;1.55;;
6898;SDS011;3488;42.616;23.350;2024-03-25T11:56:32;3.85;;;2.22;;
6898;SDS011;3488;42.616;23.350;2024-03-25T11:59:01;3.38;;;1.75;;
6898;SDS011;3488;42.616;23.350;2024-03-25T12:01:28;3.42;;;1.95;;
6898;SDS011;3488;42.616;23.350;2024-03-25T12:03:53;4.65;;;2.65;;
6898;SDS011;3488;42.616;23.350;2024-03-25T12:06:19;5.13;;;2.28;;
6898;SDS011;3488;42.616;23.350;2024-03-25T12:08:45;3.78;;;2.05;;
6898;SDS011;3488;42.616;23.350;2024-03-25T12:11:30;3.78;;;2.03;;
6898;SDS011;3488;42.616;23.350;2024-03-25T12:13:57;3.40;;;1.50;;
6898;SDS011;3488;42.616;23.350;2024-03-25T12:16:23;3.35;;;1.70;;
6898;SDS011;3488;42.616;23.350;2024-03-25T12:18:49;3.20;;;1.55;;
6898;SDS011;3488;42.616;23.350;2024-03-25T12:21:14;4.28;;;1.73;;
6898;SDS011;3488;42.616;23.350;2024-03-25T12:23:40;3.50;;;1.63;;
6898;SDS011;3488;42.616;23.350;2024-03-25T12:26:08;2.90;;;1.40;;
6898;SDS011;3488;42.616;23.350;2024-03-25T12:28:33;5.32;;;1.90;;
6898;SDS011;3488;42.616;23.350;2024-03-25T12:31:06;3.47;;;1.83;;
6898;SDS011;3488;42.616;23.350;2024-03-25T12:33:42;3.28;;;1.55;;
6898;SDS011;3488;42.616;23.350;2024-03-25T12:36:11;4.10;;;2.17;;
6898;SDS011;3488;42.616;23.350;2024-03-25T12:38:38;2.72;;;1.70;;
6898;SDS011;3488;42.616;23.350;2024-03-25T12:41:07;3.17;;;1.42;;
6898;SDS011;3488;42.616;23.350;2024-03-25T12:43:46;3.85;;;1.65;;
6898;SDS011;3488;42.616;23.350;2024-03-25T12:46:12;2.08;;;1.27;;
6898;SDS011;3488;42.616;23.350;2024-03-25T12:48:37;2.63;;;1.27;;
6898;SDS011;3488;42.616;23.350;2024-03-25T12:51:03;3.47;;;1.60;;
6898;SDS011;3488;42.616;23.350;2024-03-25T12:53:30;2.70;;;1.48;;
6898;SDS011;3488;42.616;23.350;2024-03-25T12:55:55;3.80;;;1.58;;
6898;SDS011;3488;42.616;23.350;2024-03-25T12:58:21;3.63;;;1.85;;
6898;SDS011;3488;42.616;23.350;2024-03-25T13:00:47;2.75;;;1.30;;
6898;SDS011;3488;42.616;23.350;2024-03-25T13:03:12;3.20;;;1.60;;
6898;SDS011;3488;42.616;23.350;2024-03-25T13:05:38;3.95;;;1.88;;
6898;SDS011;3488;42.616;23.350;2024-03-25T13:08:04;3.35;;;1.70;;
6898;SDS011;3488;42.616;23.350;2024-03-25T13:10:30;3.35;;;2.00;;
6898;SDS011;3488;42.616;23.350;2024-03-25T13:12:56;3.00;;;1.52;;
6898;SDS011;3488;42.616;23.350;2024-03-25T13:15:22;4.53;;;2.00;;
6898;SDS011;3488;42.616;23.350;2024-03-25T13:17:48;4.20;;;1.73;;
6898;SDS011;3488;42.616;23.350;2024-03-25T13:20:13;3.85;;;1.67;;
6898;SDS011;3488;42.616;23.350;2024-03-25T13:22:39;3.58;;;1.90;;
6898;SDS011;3488;42.616;23.350;2024-03-25T13:25:05;3.70;;;2.78;;
6898;SDS011;3488;42.616;23.350;2024-03-25T13:27:31;3.45;;;1.90;;
6898;SDS011;3488;42.616;23.350;2024-03-25T13:29:57;4.78;;;2.88;;
6898;SDS011;3488;42.616;23.350;2024-03-25T13:32:23;4.45;;;1.95;;
6898;SDS011;3488;42.616;23.350;2024-03-25T13:34:49;3.80;;;1.80;;
6898;SDS011;3488;42.616;23.350;2024-03-25T13:37:15;4.25;;;2.42;;
6898;SDS011;3488;42.616;23.350;2024-03-25T13:39:40;3.38;;;1.88;;
6898;SDS011;3488;42.616;23.350;2024-03-25T13:42:06;4.70;;;2.40;;
6898;SDS011;3488;42.616;23.350;2024-03-25T13:44:31;3.20;;;1.75;;
6898;SDS011;3488;42.616;23.350;2024-03-25T13:46:57;3.58;;;1.77;;
6898;SDS011;3488;42.616;23.350;2024-03-25T13:49:23;3.20;;;1.67;;
6898;SDS011;3488;42.616;23.350;2024-03-25T13:51:55;3.58;;;1.80;;
6898;SDS011;3488;42.616;23.350;2024-03-25T13:54:23;3.22;;;1.75;;
6898;SDS011;3488;42.616;23.350;2024-03-25T13:56:49;3.30;;;1.58;;
6898;SDS011;3488;42.616;23.350;2024-03-25T13:59:15;2.97;;;1.70;;
6898;SDS011;3488;42.616;23.350;2024-03-25T14:01:40;3.05;;;1.60;;
6898;SDS011;3488;42.616;23.350;2024-03-25T14:04:06;4.35;;;1.67;;
6898;SDS011;3488;42.616;23.350;2024-03-25T14:06:32;2.95;;;1.70;;
6898;SDS011;3488;42.616;23.350;2024-03-25T14:08:58;4.00;;;1.60;;
6898;SDS011;3488;42.616;23.350;2024-03-25T14:11:29;5.10;;;1.38;;
6898;SDS011;3488;42.616;23.350;2024-03-25T14:13:55;3.00;;;1.48;;
6898;SDS011;3488;42.616;23.350;2024-03-25T14:16:20;1.80;;;0.88;;
6898;SDS011;3488;42.616;23.350;2024-03-25T14:18:48;3.40;;;1.25;;
6898;SDS011;3488;42.616;23.350;2024-03-25T14:21:13;3.97;;;1.15;;
6898;SDS011;3488;42.616;23.350;2024-03-25T14:23:40;3.28;;;1.20;;
6898;SDS011;3488;42.616;23.350;2024-03-25T14:26:08;2.10;;;1.00;;
6898;SDS011;3488;42.616;23.350;2024-03-25T14:28:34;2.63;;;1.08;;
6898;SDS011;3488;42.616;23.350;2024-03-25T14:31:00;2.28;;;1.10;;
6898;SDS011;3488;42.616;23.350;2024-03-25T14:33:25;2.63;;;1.27;;
6898;SDS011;3488;42.616;23.350;2024-03-25T14:35:51;3.03;;;0.82;;
6898;SDS011;3488;42.616;23.350;2024-03-25T14:38:16;2.08;;;1.00;;
6898;SDS011;3488;42.616;23.350;2024-03-25T14:40:42;2.55;;;1.33;;
6898;SDS011;3488;42.616;23.350;2024-03-25T14:43:08;3.70;;;1.10;;
6898;SDS011;3488;42.616;23.350;2024-03-25T14:45:34;2.05;;;1.15;;
6898;SDS011;3488;42.616;23.350;2024-03-25T14:47:59;3.30;;;0.80;;
6898;SDS011;3488;42.616;23.350;2024-03-25T14:50:24;2.85;;;1.00;;
6898;SDS011;3488;42.616;23.350;2024-03-25T14:52:50;2.60;;;1.27;;
6898;SDS011;3488;42.616;23.350;2024-03-25T14:55:16;2.83;;;0.90;;
6898;SDS011;3488;42.616;23.350;2024-03-25T14:57:42;2.05;;;0.85;;